< < Back
Terminal Aerodrome Forecast


Current Version              Previous Versions:   1  2  3  4  5  6  7  8  9  

Terminal Aerodrome Forecast

398
FTUS44 KMOB 031146
TAFPNS
TAF
KPNS 031146Z 0312/0412 30005KT P6SM SCT120
     FM031800 18007KT P6SM VCSH SCT050 BKN150
     FM040300 VRB03KT P6SM SCT050=

Latest METAR

325
SAUS70 KWBC 032100 RRJ
MTRPNS
METAR KPNS 032053Z 22013KT 10SM CLR 31/22 A2995 RMK AO2 LTG DSNT NE
SLP141 T03110217 56017 $


USA.gov is the U.S. government's official web portal to all federal, state and local government web resources and services.